sensor_id;sensor_type;location;lat;lon;timestamp;temperature;humidity
20233;DHT22;37438;55.674;13.074;2023-03-19T00:02:35;5.50;99.90
20233;DHT22;37438;55.674;13.074;2023-03-19T00:05:40;5.50;99.90
20233;DHT22;37438;55.674;13.074;2023-03-19T00:08:44;5.50;99.90
20233;DHT22;37438;55.674;13.074;2023-03-19T00:11:48;5.50;99.90
20233;DHT22;37438;55.674;13.074;2023-03-19T00:14:53;5.50;99.90
20233;DHT22;37438;55.674;13.074;2023-03-19T00:17:57;5.40;99.90
20233;DHT22;37438;55.674;13.074;2023-03-19T00:21:02;5.50;99.90
20233;DHT22;37438;55.674;13.074;2023-03-19T00:24:07;5.60;99.90
20233;DHT22;37438;55.674;13.074;2023-03-19T00:27:13;5.70;99.90
20233;DHT22;37438;55.674;13.074;2023-03-19T00:30:17;5.70;99.90
20233;DHT22;37438;55.674;13.074;2023-03-19T00:33:21;5.70;99.90
20233;DHT22;37438;55.674;13.074;2023-03-19T00:36:26;5.70;99.90
20233;DHT22;37438;55.674;13.074;2023-03-19T00:39:33;5.70;99.90
20233;DHT22;37438;55.674;13.074;2023-03-19T00:42:37;5.80;99.90
20233;DHT22;37438;55.674;13.074;2023-03-19T00:45:42;5.70;99.90
20233;DHT22;37438;55.674;13.074;2023-03-19T00:48:46;5.80;99.90
20233;DHT22;37438;55.674;13.074;2023-03-19T00:51:51;6.00;99.90
20233;DHT22;37438;55.674;13.074;2023-03-19T00:54:55;6.00;99.90
20233;DHT22;37438;55.674;13.074;2023-03-19T00:58:00;6.00;99.90
20233;DHT22;37438;55.674;13.074;2023-03-19T01:01:07;6.00;99.90
20233;DHT22;37438;55.674;13.074;2023-03-19T01:04:11;6.10;99.90
20233;DHT22;37438;55.674;13.074;2023-03-19T01:07:16;6.00;99.90
20233;DHT22;37438;55.674;13.074;2023-03-19T01:10:22;6.20;99.90
20233;DHT22;37438;55.674;13.074;2023-03-19T01:13:27;6.20;99.90
20233;DHT22;37438;55.674;13.074;2023-03-19T01:16:31;6.30;99.90
20233;DHT22;37438;55.674;13.074;2023-03-19T01:19:37;6.30;99.90
20233;DHT22;37438;55.674;13.074;2023-03-19T01:22:41;6.30;99.90
20233;DHT22;37438;55.674;13.074;2023-03-19T01:25:46;6.30;99.90
20233;DHT22;37438;55.674;13.074;2023-03-19T01:28:51;6.60;99.90
20233;DHT22;37438;55.674;13.074;2023-03-19T01:31:57;6.60;99.90
20233;DHT22;37438;55.674;13.074;2023-03-19T01:35:21;6.70;99.90
20233;DHT22;37438;55.674;13.074;2023-03-19T01:38:26;6.80;99.90
20233;DHT22;37438;55.674;13.074;2023-03-19T01:41:36;6.80;99.90
20233;DHT22;37438;55.674;13.074;2023-03-19T01:45:02;6.80;99.90
20233;DHT22;37438;55.674;13.074;2023-03-19T01:51:41;7.20;99.90
20233;DHT22;37438;55.674;13.074;2023-03-19T01:55:05;7.20;99.90
20233;DHT22;37438;55.674;13.074;2023-03-19T01:58:43;7.20;99.90
20233;DHT22;37438;55.674;13.074;2023-03-19T02:02:27;7.30;99.90
20233;DHT22;37438;55.674;13.074;2023-03-19T02:05:33;7.50;99.90
20233;DHT22;37438;55.674;13.074;2023-03-19T02:08:42;7.40;99.90
20233;DHT22;37438;55.674;13.074;2023-03-19T02:11:47;7.60;99.90
20233;DHT22;37438;55.674;13.074;2023-03-19T02:14:51;7.70;99.90
20233;DHT22;37438;55.674;13.074;2023-03-19T02:17:56;7.70;99.90
20233;DHT22;37438;55.674;13.074;2023-03-19T02:21:13;7.80;99.90
20233;DHT22;37438;55.674;13.074;2023-03-19T02:28:15;8.00;99.90
20233;DHT22;37438;55.674;13.074;2023-03-19T02:31:22;8.10;99.90
20233;DHT22;37438;55.674;13.074;2023-03-19T02:34:36;8.20;99.90
20233;DHT22;37438;55.674;13.074;2023-03-19T02:37:41;8.20;99.90
20233;DHT22;37438;55.674;13.074;2023-03-19T02:41:06;8.10;99.90
20233;DHT22;37438;55.674;13.074;2023-03-19T02:44:11;8.30;99.90
20233;DHT22;37438;55.674;13.074;2023-03-19T02:47:16;8.20;99.90
20233;DHT22;37438;55.674;13.074;2023-03-19T02:50:21;8.30;99.90
20233;DHT22;37438;55.674;13.074;2023-03-19T02:53:25;8.30;99.90
20233;DHT22;37438;55.674;13.074;2023-03-19T02:56:30;8.30;99.90
20233;DHT22;37438;55.674;13.074;2023-03-19T02:59:34;8.30;99.90
20233;DHT22;37438;55.674;13.074;2023-03-19T03:02:39;8.20;99.90
20233;DHT22;37438;55.674;13.074;2023-03-19T03:05:44;8.30;99.90
20233;DHT22;37438;55.674;13.074;2023-03-19T03:08:49;8.30;99.90
20233;DHT22;37438;55.674;13.074;2023-03-19T03:11:53;8.40;99.90
20233;DHT22;37438;55.674;13.074;2023-03-19T03:14:57;8.60;99.90
20233;DHT22;37438;55.674;13.074;2023-03-19T03:18:02;8.60;99.90
20233;DHT22;37438;55.674;13.074;2023-03-19T03:21:06;8.60;99.90
20233;DHT22;37438;55.674;13.074;2023-03-19T03:24:11;8.50;99.90
20233;DHT22;37438;55.674;13.074;2023-03-19T03:27:15;8.60;99.90
20233;DHT22;37438;55.674;13.074;2023-03-19T03:30:20;8.70;99.90
20233;DHT22;37438;55.674;13.074;2023-03-19T03:33:25;8.50;99.90
20233;DHT22;37438;55.674;13.074;2023-03-19T03:36:29;8.50;99.90
20233;DHT22;37438;55.674;13.074;2023-03-19T03:39:34;8.50;99.90
20233;DHT22;37438;55.674;13.074;2023-03-19T03:42:39;8.30;99.90
20233;DHT22;37438;55.674;13.074;2023-03-19T03:45:45;8.30;99.90
20233;DHT22;37438;55.674;13.074;2023-03-19T03:48:52;8.30;99.90
20233;DHT22;37438;55.674;13.074;2023-03-19T03:51:56;8.30;99.90
20233;DHT22;37438;55.674;13.074;2023-03-19T03:55:01;8.30;99.90
20233;DHT22;37438;55.674;13.074;2023-03-19T03:58:06;8.50;99.90
20233;DHT22;37438;55.674;13.074;2023-03-19T04:01:14;8.50;99.90
20233;DHT22;37438;55.674;13.074;2023-03-19T04:04:20;8.40;99.90
20233;DHT22;37438;55.674;13.074;2023-03-19T04:07:25;8.30;99.90
20233;DHT22;37438;55.674;13.074;2023-03-19T04:10:32;7.90;99.90
20233;DHT22;37438;55.674;13.074;2023-03-19T04:13:39;8.00;99.90
20233;DHT22;37438;55.674;13.074;2023-03-19T04:16:44;8.00;99.90
20233;DHT22;37438;55.674;13.074;2023-03-19T04:19:50;8.00;99.90
20233;DHT22;37438;55.674;13.074;2023-03-19T04:22:55;8.10;99.90
20233;DHT22;37438;55.674;13.074;2023-03-19T04:26:00;8.10;99.90
20233;DHT22;37438;55.674;13.074;2023-03-19T04:29:06;8.00;99.90
20233;DHT22;37438;55.674;13.074;2023-03-19T04:32:14;7.70;99.90
20233;DHT22;37438;55.674;13.074;2023-03-19T04:35:19;7.60;99.90
20233;DHT22;37438;55.674;13.074;2023-03-19T04:38:25;7.60;99.90
20233;DHT22;37438;55.674;13.074;2023-03-19T04:41:30;7.60;99.90
20233;DHT22;37438;55.674;13.074;2023-03-19T04:44:59;7.40;99.90
20233;DHT22;37438;55.674;13.074;2023-03-19T04:48:04;7.50;99.90
20233;DHT22;37438;55.674;13.074;2023-03-19T04:51:10;7.70;99.90
20233;DHT22;37438;55.674;13.074;2023-03-19T04:54:15;7.60;99.90
20233;DHT22;37438;55.674;13.074;2023-03-19T04:57:20;7.60;99.90
20233;DHT22;37438;55.674;13.074;2023-03-19T05:00:26;7.60;99.90
20233;DHT22;37438;55.674;13.074;2023-03-19T05:03:31;7.50;99.90
20233;DHT22;37438;55.674;13.074;2023-03-19T05:06:36;7.40;99.90
20233;DHT22;37438;55.674;13.074;2023-03-19T05:09:41;7.60;99.90
20233;DHT22;37438;55.674;13.074;2023-03-19T05:12:47;7.40;99.90
20233;DHT22;37438;55.674;13.074;2023-03-19T05:15:53;7.50;99.90
20233;DHT22;37438;55.674;13.074;2023-03-19T05:18:59;7.40;99.90
20233;DHT22;37438;55.674;13.074;2023-03-19T05:22:04;7.50;99.90
20233;DHT22;37438;55.674;13.074;2023-03-19T05:25:08;7.60;99.90
20233;DHT22;37438;55.674;13.074;2023-03-19T05:28:15;7.60;99.90
20233;DHT22;37438;55.674;13.074;2023-03-19T05:31:19;7.20;99.90
20233;DHT22;37438;55.674;13.074;2023-03-19T05:34:28;7.30;99.90
20233;DHT22;37438;55.674;13.074;2023-03-19T05:37:33;7.40;99.90
20233;DHT22;37438;55.674;13.074;2023-03-19T05:40:37;7.50;99.90
20233;DHT22;37438;55.674;13.074;2023-03-19T05:43:58;7.40;99.90
20233;DHT22;37438;55.674;13.074;2023-03-19T05:47:28;7.30;99.90
20233;DHT22;37438;55.674;13.074;2023-03-19T05:50:33;7.40;99.90
20233;DHT22;37438;55.674;13.074;2023-03-19T05:53:50;7.40;99.90
20233;DHT22;37438;55.674;13.074;2023-03-19T05:57:09;7.20;99.90
20233;DHT22;37438;55.674;13.074;2023-03-19T06:00:34;7.30;99.90
20233;DHT22;37438;55.674;13.074;2023-03-19T06:03:39;7.30;99.90
20233;DHT22;37438;55.674;13.074;2023-03-19T06:06:45;7.40;99.90
20233;DHT22;37438;55.674;13.074;2023-03-19T06:09:50;7.50;99.90
20233;DHT22;37438;55.674;13.074;2023-03-19T06:12:55;7.50;99.90
20233;DHT22;37438;55.674;13.074;2023-03-19T06:16:19;7.90;99.90
20233;DHT22;37438;55.674;13.074;2023-03-19T06:19:28;7.60;99.90
20233;DHT22;37438;55.674;13.074;2023-03-19T06:22:32;8.00;99.90
20233;DHT22;37438;55.674;13.074;2023-03-19T06:25:37;7.70;99.90
20233;DHT22;37438;55.674;13.074;2023-03-19T06:28:41;7.80;99.90
20233;DHT22;37438;55.674;13.074;2023-03-19T06:31:46;8.00;99.90
20233;DHT22;37438;55.674;13.074;2023-03-19T06:34:57;7.90;99.90
20233;DHT22;37438;55.674;13.074;2023-03-19T06:38:02;8.10;99.90
20233;DHT22;37438;55.674;13.074;2023-03-19T06:41:06;8.00;99.90
20233;DHT22;37438;55.674;13.074;2023-03-19T06:44:11;7.90;99.90
20233;DHT22;37438;55.674;13.074;2023-03-19T06:47:16;8.20;99.90
20233;DHT22;37438;55.674;13.074;2023-03-19T06:50:21;8.40;99.90
20233;DHT22;37438;55.674;13.074;2023-03-19T06:53:27;8.10;99.90
20233;DHT22;37438;55.674;13.074;2023-03-19T06:56:31;8.10;99.90
20233;DHT22;37438;55.674;13.074;2023-03-19T06:59:36;8.30;99.90
20233;DHT22;37438;55.674;13.074;2023-03-19T07:02:40;8.20;99.90
20233;DHT22;37438;55.674;13.074;2023-03-19T07:05:44;8.40;99.90
20233;DHT22;37438;55.674;13.074;2023-03-19T07:08:50;8.50;99.90
20233;DHT22;37438;55.674;13.074;2023-03-19T07:11:54;8.60;99.90
20233;DHT22;37438;55.674;13.074;2023-03-19T07:14:59;8.30;99.90
20233;DHT22;37438;55.674;13.074;2023-03-19T07:18:04;8.30;99.90
20233;DHT22;37438;55.674;13.074;2023-03-19T07:21:09;8.30;99.90
20233;DHT22;37438;55.674;13.074;2023-03-19T07:24:14;8.40;99.90
20233;DHT22;37438;55.674;13.074;2023-03-19T07:27:18;8.40;99.90
20233;DHT22;37438;55.674;13.074;2023-03-19T07:30:22;8.50;99.90
20233;DHT22;37438;55.674;13.074;2023-03-19T07:33:27;8.50;99.90
20233;DHT22;37438;55.674;13.074;2023-03-19T07:36:32;8.50;99.90
20233;DHT22;37438;55.674;13.074;2023-03-19T07:39:36;8.90;99.90
20233;DHT22;37438;55.674;13.074;2023-03-19T07:42:40;8.50;99.90
20233;DHT22;37438;55.674;13.074;2023-03-19T07:45:48;8.80;99.90
20233;DHT22;37438;55.674;13.074;2023-03-19T07:48:52;8.50;99.90
20233;DHT22;37438;55.674;13.074;2023-03-19T07:51:57;8.70;99.90
20233;DHT22;37438;55.674;13.074;2023-03-19T07:55:01;8.60;99.90
20233;DHT22;37438;55.674;13.074;2023-03-19T07:58:06;8.90;99.90
20233;DHT22;37438;55.674;13.074;2023-03-19T08:01:11;9.00;99.90
20233;DHT22;37438;55.674;13.074;2023-03-19T08:04:15;9.10;99.90
20233;DHT22;37438;55.674;13.074;2023-03-19T08:07:20;8.80;99.90
20233;DHT22;37438;55.674;13.074;2023-03-19T08:10:25;8.90;99.90
20233;DHT22;37438;55.674;13.074;2023-03-19T08:13:30;9.00;99.90
20233;DHT22;37438;55.674;13.074;2023-03-19T08:16:35;9.20;99.90
20233;DHT22;37438;55.674;13.074;2023-03-19T08:19:39;9.00;99.90
20233;DHT22;37438;55.674;13.074;2023-03-19T08:22:48;9.20;99.90
20233;DHT22;37438;55.674;13.074;2023-03-19T08:25:53;9.00;99.90
20233;DHT22;37438;55.674;13.074;2023-03-19T08:28:59;9.30;99.90
20233;DHT22;37438;55.674;13.074;2023-03-19T08:32:04;9.30;99.90
20233;DHT22;37438;55.674;13.074;2023-03-19T08:35:09;9.20;99.90
20233;DHT22;37438;55.674;13.074;2023-03-19T08:38:13;9.60;99.90
20233;DHT22;37438;55.674;13.074;2023-03-19T08:41:18;9.60;99.90
20233;DHT22;37438;55.674;13.074;2023-03-19T08:44:22;9.70;99.90
20233;DHT22;37438;55.674;13.074;2023-03-19T08:47:27;9.50;99.90
20233;DHT22;37438;55.674;13.074;2023-03-19T08:50:31;9.90;99.90
20233;DHT22;37438;55.674;13.074;2023-03-19T08:53:37;9.80;99.90
20233;DHT22;37438;55.674;13.074;2023-03-19T08:56:42;9.60;99.90
20233;DHT22;37438;55.674;13.074;2023-03-19T08:59:47;9.80;99.90
20233;DHT22;37438;55.674;13.074;2023-03-19T09:02:51;9.80;99.90
20233;DHT22;37438;55.674;13.074;2023-03-19T09:06:03;9.70;99.90
20233;DHT22;37438;55.674;13.074;2023-03-19T09:09:07;9.80;99.90
20233;DHT22;37438;55.674;13.074;2023-03-19T09:12:14;9.90;99.90
20233;DHT22;37438;55.674;13.074;2023-03-19T09:15:19;9.80;99.90
20233;DHT22;37438;55.674;13.074;2023-03-19T09:18:24;9.90;99.90
20233;DHT22;37438;55.674;13.074;2023-03-19T09:21:29;10.00;99.90
20233;DHT22;37438;55.674;13.074;2023-03-19T09:24:33;10.30;99.90
20233;DHT22;37438;55.674;13.074;2023-03-19T09:27:38;10.10;99.90
20233;DHT22;37438;55.674;13.074;2023-03-19T09:30:45;10.00;99.90
20233;DHT22;37438;55.674;13.074;2023-03-19T09:33:50;9.90;99.90
20233;DHT22;37438;55.674;13.074;2023-03-19T09:36:55;10.00;99.90
20233;DHT22;37438;55.674;13.074;2023-03-19T09:39:59;10.20;99.90
20233;DHT22;37438;55.674;13.074;2023-03-19T09:43:08;10.10;99.90
20233;DHT22;37438;55.674;13.074;2023-03-19T09:46:24;10.40;99.90
20233;DHT22;37438;55.674;13.074;2023-03-19T09:49:39;10.30;99.90
20233;DHT22;37438;55.674;13.074;2023-03-19T09:56:14;10.40;99.90
20233;DHT22;37438;55.674;13.074;2023-03-19T09:59:22;10.80;99.90
20233;DHT22;37438;55.674;13.074;2023-03-19T10:02:40;10.60;99.90
20233;DHT22;37438;55.674;13.074;2023-03-19T10:12:44;10.70;99.90
20233;DHT22;37438;55.674;13.074;2023-03-19T10:15:53;10.90;99.90
20233;DHT22;37438;55.674;13.074;2023-03-19T10:19:01;10.70;99.90
20233;DHT22;37438;55.674;13.074;2023-03-19T10:22:12;10.80;99.90
20233;DHT22;37438;55.674;13.074;2023-03-19T10:25:25;10.70;99.90
20233;DHT22;37438;55.674;13.074;2023-03-19T10:28:30;10.70;99.90
20233;DHT22;37438;55.674;13.074;2023-03-19T10:31:38;10.90;99.90
20233;DHT22;37438;55.674;13.074;2023-03-19T10:34:46;11.00;99.90
20233;DHT22;37438;55.674;13.074;2023-03-19T10:37:52;11.10;99.90
20233;DHT22;37438;55.674;13.074;2023-03-19T10:44:27;11.00;99.90
20233;DHT22;37438;55.674;13.074;2023-03-19T10:47:38;11.00;99.90
20233;DHT22;37438;55.674;13.074;2023-03-19T10:50:52;11.00;99.90
20233;DHT22;37438;55.674;13.074;2023-03-19T10:53:59;11.00;99.90
20233;DHT22;37438;55.674;13.074;2023-03-19T10:57:04;11.10;99.90
20233;DHT22;37438;55.674;13.074;2023-03-19T11:00:18;11.40;99.90
20233;DHT22;37438;55.674;13.074;2023-03-19T11:03:36;11.50;99.90
20233;DHT22;37438;55.674;13.074;2023-03-19T11:06:41;11.70;99.90
20233;DHT22;37438;55.674;13.074;2023-03-19T11:09:54;11.80;99.90
20233;DHT22;37438;55.674;13.074;2023-03-19T11:13:05;12.00;99.90
20233;DHT22;37438;55.674;13.074;2023-03-19T11:16:09;12.30;99.90
20233;DHT22;37438;55.674;13.074;2023-03-19T11:19:27;12.30;99.90
20233;DHT22;37438;55.674;13.074;2023-03-19T11:22:41;12.20;99.90
20233;DHT22;37438;55.674;13.074;2023-03-19T11:25:53;12.30;99.90
20233;DHT22;37438;55.674;13.074;2023-03-19T11:29:03;12.60;99.90
20233;DHT22;37438;55.674;13.074;2023-03-19T11:35:33;13.10;99.90
20233;DHT22;37438;55.674;13.074;2023-03-19T11:45:34;12.10;99.90
20233;DHT22;37438;55.674;13.074;2023-03-19T11:55:30;12.70;99.90
20233;DHT22;37438;55.674;13.074;2023-03-19T12:02:28;12.60;99.90
20233;DHT22;37438;55.674;13.074;2023-03-19T12:06:10;12.50;99.90
20233;DHT22;37438;55.674;13.074;2023-03-19T12:09:33;12.60;99.90
20233;DHT22;37438;55.674;13.074;2023-03-19T12:12:53;13.00;99.90
20233;DHT22;37438;55.674;13.074;2023-03-19T12:19:26;13.50;99.90
20233;DHT22;37438;55.674;13.074;2023-03-19T12:23:06;13.50;99.90
20233;DHT22;37438;55.674;13.074;2023-03-19T12:26:27;13.20;99.90
20233;DHT22;37438;55.674;13.074;2023-03-19T12:29:44;13.20;99.90
20233;DHT22;37438;55.674;13.074;2023-03-19T12:33:22;13.40;99.90
20233;DHT22;37438;55.674;13.074;2023-03-19T12:36:30;13.40;99.90
20233;DHT22;37438;55.674;13.074;2023-03-19T12:39:41;14.50;99.90
20233;DHT22;37438;55.674;13.074;2023-03-19T12:42:48;14.50;99.90
20233;DHT22;37438;55.674;13.074;2023-03-19T12:46:08;14.00;99.90
20233;DHT22;37438;55.674;13.074;2023-03-19T12:55:44;14.30;99.90
20233;DHT22;37438;55.674;13.074;2023-03-19T13:02:41;13.50;99.90
20233;DHT22;37438;55.674;13.074;2023-03-19T13:09:23;13.00;99.90
20233;DHT22;37438;55.674;13.074;2023-03-19T13:12:33;13.20;99.90
20233;DHT22;37438;55.674;13.074;2023-03-19T13:15:42;13.00;99.90
20233;DHT22;37438;55.674;13.074;2023-03-19T13:22:21;13.10;99.90
20233;DHT22;37438;55.674;13.074;2023-03-19T13:25:46;13.20;99.90
20233;DHT22;37438;55.674;13.074;2023-03-19T13:32:59;13.50;99.90
20233;DHT22;37438;55.674;13.074;2023-03-19T13:36:06;13.70;99.90
20233;DHT22;37438;55.674;13.074;2023-03-19T13:39:18;14.20;99.90
20233;DHT22;37438;55.674;13.074;2023-03-19T13:42:44;14.10;99.90
20233;DHT22;37438;55.674;13.074;2023-03-19T13:45:53;14.40;99.90
20233;DHT22;37438;55.674;13.074;2023-03-19T13:55:53;14.00;99.90
20233;DHT22;37438;55.674;13.074;2023-03-19T14:05:32;14.80;99.90
20233;DHT22;37438;55.674;13.074;2023-03-19T14:08:44;15.10;99.90
20233;DHT22;37438;55.674;13.074;2023-03-19T14:11:51;15.60;99.90
20233;DHT22;37438;55.674;13.074;2023-03-19T14:15:03;15.30;99.90
20233;DHT22;37438;55.674;13.074;2023-03-19T14:18:21;15.40;99.90
20233;DHT22;37438;55.674;13.074;2023-03-19T14:21:45;15.20;99.90
20233;DHT22;37438;55.674;13.074;2023-03-19T14:25:12;14.80;99.90
20233;DHT22;37438;55.674;13.074;2023-03-19T14:28:18;14.40;99.90
20233;DHT22;37438;55.674;13.074;2023-03-19T14:31:40;14.50;99.90
20233;DHT22;37438;55.674;13.074;2023-03-19T14:34:46;14.60;99.90
20233;DHT22;37438;55.674;13.074;2023-03-19T14:37:53;15.20;99.90
20233;DHT22;37438;55.674;13.074;2023-03-19T14:40:59;14.90;99.90
20233;DHT22;37438;55.674;13.074;2023-03-19T14:44:10;14.70;99.90
20233;DHT22;37438;55.674;13.074;2023-03-19T14:47:39;14.10;99.90
20233;DHT22;37438;55.674;13.074;2023-03-19T14:54:39;14.80;99.90
20233;DHT22;37438;55.674;13.074;2023-03-19T14:57:45;15.00;99.90
20233;DHT22;37438;55.674;13.074;2023-03-19T15:00:53;14.80;99.90
20233;DHT22;37438;55.674;13.074;2023-03-19T15:04:09;14.80;99.90
20233;DHT22;37438;55.674;13.074;2023-03-19T15:07:19;15.10;99.90
20233;DHT22;37438;55.674;13.074;2023-03-19T15:10:28;15.20;99.90
20233;DHT22;37438;55.674;13.074;2023-03-19T15:14:08;14.60;99.90
20233;DHT22;37438;55.674;13.074;2023-03-19T15:17:24;14.40;99.90
20233;DHT22;37438;55.674;13.074;2023-03-19T15:20:37;14.80;99.90
20233;DHT22;37438;55.674;13.074;2023-03-19T15:23:45;15.10;99.90
20233;DHT22;37438;55.674;13.074;2023-03-19T15:26:49;15.00;99.90
20233;DHT22;37438;55.674;13.074;2023-03-19T15:29:54;14.70;99.90
20233;DHT22;37438;55.674;13.074;2023-03-19T15:33:20;15.70;99.90
20233;DHT22;37438;55.674;13.074;2023-03-19T15:36:44;16.30;99.90
20233;DHT22;37438;55.674;13.074;2023-03-19T15:39:51;17.00;99.90
20233;DHT22;37438;55.674;13.074;2023-03-19T15:42:59;17.50;99.90
20233;DHT22;37438;55.674;13.074;2023-03-19T15:46:10;16.80;99.90
20233;DHT22;37438;55.674;13.074;2023-03-19T15:49:21;16.80;99.90
20233;DHT22;37438;55.674;13.074;2023-03-19T15:52:30;16.70;99.90
20233;DHT22;37438;55.674;13.074;2023-03-19T15:55:35;16.60;99.90
20233;DHT22;37438;55.674;13.074;2023-03-19T15:58:44;16.10;99.90
20233;DHT22;37438;55.674;13.074;2023-03-19T16:01:50;16.30;99.90
20233;DHT22;37438;55.674;13.074;2023-03-19T16:04:55;15.70;99.90
20233;DHT22;37438;55.674;13.074;2023-03-19T16:08:21;15.40;99.90
20233;DHT22;37438;55.674;13.074;2023-03-19T16:11:28;15.20;99.90
20233;DHT22;37438;55.674;13.074;2023-03-19T16:14:43;15.20;99.90
20233;DHT22;37438;55.674;13.074;2023-03-19T16:17:49;15.10;99.90
20233;DHT22;37438;55.674;13.074;2023-03-19T16:21:05;14.70;99.90
20233;DHT22;37438;55.674;13.074;2023-03-19T16:24:24;15.00;99.90
20233;DHT22;37438;55.674;13.074;2023-03-19T16:27:37;14.80;99.90
20233;DHT22;37438;55.674;13.074;2023-03-19T16:30:45;14.30;99.90
20233;DHT22;37438;55.674;13.074;2023-03-19T16:33:51;13.40;99.90
20233;DHT22;37438;55.674;13.074;2023-03-19T16:36:56;13.70;99.90
20233;DHT22;37438;55.674;13.074;2023-03-19T16:43:14;12.40;99.90
20233;DHT22;37438;55.674;13.074;2023-03-19T16:46:26;11.80;99.90
20233;DHT22;37438;55.674;13.074;2023-03-19T16:49:31;11.60;99.90
20233;DHT22;37438;55.674;13.074;2023-03-19T16:52:37;11.40;99.90
20233;DHT22;37438;55.674;13.074;2023-03-19T16:55:42;11.10;99.90
20233;DHT22;37438;55.674;13.074;2023-03-19T16:58:47;11.00;99.90
20233;DHT22;37438;55.674;13.074;2023-03-19T17:01:51;10.90;99.90
20233;DHT22;37438;55.674;13.074;2023-03-19T17:04:56;10.60;99.90
20233;DHT22;37438;55.674;13.074;2023-03-19T17:08:00;10.30;99.90
20233;DHT22;37438;55.674;13.074;2023-03-19T17:11:11;10.30;99.90
20233;DHT22;37438;55.674;13.074;2023-03-19T17:14:20;10.30;99.90
20233;DHT22;37438;55.674;13.074;2023-03-19T17:17:25;10.20;99.90
20233;DHT22;37438;55.674;13.074;2023-03-19T17:20:31;10.00;99.90
20233;DHT22;37438;55.674;13.074;2023-03-19T17:23:36;10.00;99.90
20233;DHT22;37438;55.674;13.074;2023-03-19T17:26:41;9.80;99.90
20233;DHT22;37438;55.674;13.074;2023-03-19T17:29:46;9.70;99.90
20233;DHT22;37438;55.674;13.074;2023-03-19T17:32:50;9.60;99.90
20233;DHT22;37438;55.674;13.074;2023-03-19T17:35:57;9.50;99.90
20233;DHT22;37438;55.674;13.074;2023-03-19T17:39:02;9.40;99.90
20233;DHT22;37438;55.674;13.074;2023-03-19T17:42:24;9.30;99.90
20233;DHT22;37438;55.674;13.074;2023-03-19T17:45:29;9.30;99.90
20233;DHT22;37438;55.674;13.074;2023-03-19T17:48:34;9.30;99.90
20233;DHT22;37438;55.674;13.074;2023-03-19T17:51:38;9.10;99.90
20233;DHT22;37438;55.674;13.074;2023-03-19T17:54:43;9.10;99.90
20233;DHT22;37438;55.674;13.074;2023-03-19T17:57:48;9.00;99.90
20233;DHT22;37438;55.674;13.074;2023-03-19T18:00:54;8.90;99.90
20233;DHT22;37438;55.674;13.074;2023-03-19T18:03:59;8.80;99.90
20233;DHT22;37438;55.674;13.074;2023-03-19T18:07:05;8.70;99.90
20233;DHT22;37438;55.674;13.074;2023-03-19T18:10:18;8.70;99.90
20233;DHT22;37438;55.674;13.074;2023-03-19T18:13:22;8.60;99.90
20233;DHT22;37438;55.674;13.074;2023-03-19T18:16:31;8.50;99.90
20233;DHT22;37438;55.674;13.074;2023-03-19T18:19:37;8.40;99.90
20233;DHT22;37438;55.674;13.074;2023-03-19T18:22:42;8.30;99.90
20233;DHT22;37438;55.674;13.074;2023-03-19T18:25:46;8.30;99.90
20233;DHT22;37438;55.674;13.074;2023-03-19T18:28:51;8.30;99.90
20233;DHT22;37438;55.674;13.074;2023-03-19T18:32:02;8.20;99.90
20233;DHT22;37438;55.674;13.074;2023-03-19T18:35:19;8.20;99.90
20233;DHT22;37438;55.674;13.074;2023-03-19T18:38:25;8.10;99.90
20233;DHT22;37438;55.674;13.074;2023-03-19T18:41:29;8.20;99.90
20233;DHT22;37438;55.674;13.074;2023-03-19T18:44:41;8.10;99.90
20233;DHT22;37438;55.674;13.074;2023-03-19T18:47:47;8.20;99.90
20233;DHT22;37438;55.674;13.074;2023-03-19T18:50:53;8.20;99.90
20233;DHT22;37438;55.674;13.074;2023-03-19T18:53:59;8.10;99.90
20233;DHT22;37438;55.674;13.074;2023-03-19T18:57:03;8.10;99.90
20233;DHT22;37438;55.674;13.074;2023-03-19T19:00:29;8.20;99.90
20233;DHT22;37438;55.674;13.074;2023-03-19T19:03:35;8.30;99.90
20233;DHT22;37438;55.674;13.074;2023-03-19T19:06:41;8.20;99.90
20233;DHT22;37438;55.674;13.074;2023-03-19T19:09:51;8.30;99.90
20233;DHT22;37438;55.674;13.074;2023-03-19T19:12:55;8.20;99.90
20233;DHT22;37438;55.674;13.074;2023-03-19T19:16:00;8.20;99.90
20233;DHT22;37438;55.674;13.074;2023-03-19T19:19:15;8.20;99.90
20233;DHT22;37438;55.674;13.074;2023-03-19T19:22:20;8.20;99.90
20233;DHT22;37438;55.674;13.074;2023-03-19T19:25:26;8.20;99.90
20233;DHT22;37438;55.674;13.074;2023-03-19T19:28:35;8.20;99.90
20233;DHT22;37438;55.674;13.074;2023-03-19T19:31:44;8.20;99.90
20233;DHT22;37438;55.674;13.074;2023-03-19T19:34:48;8.20;99.90
20233;DHT22;37438;55.674;13.074;2023-03-19T19:37:53;8.20;99.90
20233;DHT22;37438;55.674;13.074;2023-03-19T19:40:58;8.20;99.90
20233;DHT22;37438;55.674;13.074;2023-03-19T19:44:04;8.20;99.90
20233;DHT22;37438;55.674;13.074;2023-03-19T19:47:15;8.10;99.90
20233;DHT22;37438;55.674;13.074;2023-03-19T19:50:20;8.10;99.90
20233;DHT22;37438;55.674;13.074;2023-03-19T19:53:27;8.20;99.90
20233;DHT22;37438;55.674;13.074;2023-03-19T19:56:32;8.10;99.90
20233;DHT22;37438;55.674;13.074;2023-03-19T19:59:37;8.10;99.90
20233;DHT22;37438;55.674;13.074;2023-03-19T20:02:42;8.10;99.90
20233;DHT22;37438;55.674;13.074;2023-03-19T20:05:46;8.20;99.90
20233;DHT22;37438;55.674;13.074;2023-03-19T20:08:51;8.20;99.90
20233;DHT22;37438;55.674;13.074;2023-03-19T20:11:56;8.10;99.90
20233;DHT22;37438;55.674;13.074;2023-03-19T20:15:00;8.20;99.90
20233;DHT22;37438;55.674;13.074;2023-03-19T20:18:05;8.20;99.90
20233;DHT22;37438;55.674;13.074;2023-03-19T20:21:11;8.20;99.90
20233;DHT22;37438;55.674;13.074;2023-03-19T20:24:16;8.10;99.90
20233;DHT22;37438;55.674;13.074;2023-03-19T20:27:25;8.20;99.90
20233;DHT22;37438;55.674;13.074;2023-03-19T20:30:34;8.20;99.90
20233;DHT22;37438;55.674;13.074;2023-03-19T20:33:40;8.20;99.90
20233;DHT22;37438;55.674;13.074;2023-03-19T20:36:45;8.20;99.90
20233;DHT22;37438;55.674;13.074;2023-03-19T20:39:49;8.20;99.90
20233;DHT22;37438;55.674;13.074;2023-03-19T20:42:54;8.20;99.90
20233;DHT22;37438;55.674;13.074;2023-03-19T20:46:04;8.20;99.90
20233;DHT22;37438;55.674;13.074;2023-03-19T20:49:15;8.20;99.90
20233;DHT22;37438;55.674;13.074;2023-03-19T20:52:20;8.30;99.90
20233;DHT22;37438;55.674;13.074;2023-03-19T20:55:27;8.20;99.90
20233;DHT22;37438;55.674;13.074;2023-03-19T20:58:33;8.30;99.90
20233;DHT22;37438;55.674;13.074;2023-03-19T21:01:40;8.30;99.90
20233;DHT22;37438;55.674;13.074;2023-03-19T21:04:45;8.30;99.90
20233;DHT22;37438;55.674;13.074;2023-03-19T21:07:52;8.30;99.90
20233;DHT22;37438;55.674;13.074;2023-03-19T21:10:57;8.20;99.90